sensor_id;sensor_type;location;lat;lon;timestamp;P1;durP1;ratioP1;P2;durP2;ratioP2
8978;SDS011;4524;51.364;5.448;2023-02-01T00:00:54;11.27;;;4.63;;
8978;SDS011;4524;51.364;5.448;2023-02-01T00:03:22;12.20;;;4.20;;
8978;SDS011;4524;51.364;5.448;2023-02-01T00:05:56;14.60;;;4.27;;
8978;SDS011;4524;51.364;5.448;2023-02-01T00:08:24;11.60;;;4.50;;
8978;SDS011;4524;51.364;5.448;2023-02-01T00:10:59;14.70;;;4.37;;
8978;SDS011;4524;51.364;5.448;2023-02-01T00:13:28;14.93;;;3.93;;
8978;SDS011;4524;51.364;5.448;2023-02-01T00:16:02;14.23;;;4.43;;
8978;SDS011;4524;51.364;5.448;2023-02-01T00:18:31;15.07;;;4.80;;
8978;SDS011;4524;51.364;5.448;2023-02-01T00:20:59;11.70;;;3.77;;
8978;SDS011;4524;51.364;5.448;2023-02-01T00:23:27;10.90;;;4.10;;
8978;SDS011;4524;51.364;5.448;2023-02-01T00:25:55;16.50;;;4.80;;
8978;SDS011;4524;51.364;5.448;2023-02-01T00:28:29;14.67;;;4.67;;
8978;SDS011;4524;51.364;5.448;2023-02-01T00:30:57;12.43;;;4.40;;
8978;SDS011;4524;51.364;5.448;2023-02-01T00:33:26;13.83;;;4.43;;
8978;SDS011;4524;51.364;5.448;2023-02-01T00:35:56;11.50;;;4.00;;
8978;SDS011;4524;51.364;5.448;2023-02-01T00:38:25;15.13;;;4.43;;
8978;SDS011;4524;51.364;5.448;2023-02-01T00:40:53;10.50;;;4.17;;
8978;SDS011;4524;51.364;5.448;2023-02-01T00:43:23;13.73;;;4.03;;
8978;SDS011;4524;51.364;5.448;2023-02-01T00:45:51;14.60;;;3.80;;
8978;SDS011;4524;51.364;5.448;2023-02-01T00:48:19;13.70;;;4.40;;
8978;SDS011;4524;51.364;5.448;2023-02-01T00:50:47;15.07;;;5.00;;
8978;SDS011;4524;51.364;5.448;2023-02-01T00:53:15;14.33;;;4.47;;
8978;SDS011;4524;51.364;5.448;2023-02-01T00:55:44;14.43;;;4.63;;
8978;SDS011;4524;51.364;5.448;2023-02-01T00:58:13;12.20;;;4.07;;
8978;SDS011;4524;51.364;5.448;2023-02-01T01:00:42;15.43;;;4.03;;
8978;SDS011;4524;51.364;5.448;2023-02-01T01:03:10;21.17;;;4.50;;
8978;SDS011;4524;51.364;5.448;2023-02-01T01:05:44;15.17;;;4.53;;
8978;SDS011;4524;51.364;5.448;2023-02-01T01:08:13;10.97;;;3.77;;
8978;SDS011;4524;51.364;5.448;2023-02-01T01:10:41;13.07;;;4.20;;
8978;SDS011;4524;51.364;5.448;2023-02-01T01:13:10;19.17;;;4.00;;
8978;SDS011;4524;51.364;5.448;2023-02-01T01:15:38;11.80;;;4.10;;
8978;SDS011;4524;51.364;5.448;2023-02-01T01:18:08;11.90;;;4.10;;
8978;SDS011;4524;51.364;5.448;2023-02-01T01:20:38;13.53;;;4.63;;
8978;SDS011;4524;51.364;5.448;2023-02-01T01:23:08;14.63;;;4.00;;
8978;SDS011;4524;51.364;5.448;2023-02-01T01:25:37;17.57;;;5.27;;
8978;SDS011;4524;51.364;5.448;2023-02-01T01:28:06;15.37;;;4.53;;
8978;SDS011;4524;51.364;5.448;2023-02-01T01:30:34;23.37;;;5.60;;
8978;SDS011;4524;51.364;5.448;2023-02-01T01:33:03;17.63;;;4.97;;
8978;SDS011;4524;51.364;5.448;2023-02-01T01:35:32;12.70;;;5.37;;
8978;SDS011;4524;51.364;5.448;2023-02-01T01:38:01;15.27;;;4.33;;
8978;SDS011;4524;51.364;5.448;2023-02-01T01:40:30;18.33;;;4.60;;
8978;SDS011;4524;51.364;5.448;2023-02-01T01:42:58;19.37;;;5.50;;
8978;SDS011;4524;51.364;5.448;2023-02-01T01:45:27;19.97;;;6.40;;
8978;SDS011;4524;51.364;5.448;2023-02-01T01:47:58;15.77;;;5.13;;
8978;SDS011;4524;51.364;5.448;2023-02-01T01:50:29;15.47;;;4.87;;
8978;SDS011;4524;51.364;5.448;2023-02-01T01:53:01;15.07;;;5.13;;
8978;SDS011;4524;51.364;5.448;2023-02-01T01:55:35;18.30;;;5.53;;
8978;SDS011;4524;51.364;5.448;2023-02-01T01:58:08;22.03;;;5.60;;
8978;SDS011;4524;51.364;5.448;2023-02-01T02:00:39;15.40;;;5.37;;
8978;SDS011;4524;51.364;5.448;2023-02-01T02:03:08;16.63;;;5.90;;
8978;SDS011;4524;51.364;5.448;2023-02-01T02:05:42;22.53;;;5.63;;
8978;SDS011;4524;51.364;5.448;2023-02-01T02:08:11;19.90;;;6.57;;
8978;SDS011;4524;51.364;5.448;2023-02-01T02:10:40;16.20;;;5.83;;
8978;SDS011;4524;51.364;5.448;2023-02-01T02:13:27;20.13;;;5.90;;
8978;SDS011;4524;51.364;5.448;2023-02-01T02:16:01;14.10;;;5.67;;
8978;SDS011;4524;51.364;5.448;2023-02-01T02:18:36;14.60;;;5.60;;
8978;SDS011;4524;51.364;5.448;2023-02-01T02:21:10;21.80;;;6.33;;
8978;SDS011;4524;51.364;5.448;2023-02-01T02:24:01;18.57;;;6.07;;
8978;SDS011;4524;51.364;5.448;2023-02-01T02:27:07;15.10;;;5.27;;
8978;SDS011;4524;51.364;5.448;2023-02-01T02:33:02;17.77;;;5.77;;
8978;SDS011;4524;51.364;5.448;2023-02-01T02:35:54;18.50;;;6.37;;
8978;SDS011;4524;51.364;5.448;2023-02-01T02:38:30;15.37;;;5.47;;
8978;SDS011;4524;51.364;5.448;2023-02-01T02:41:10;23.87;;;6.33;;
8978;SDS011;4524;51.364;5.448;2023-02-01T02:44:05;17.40;;;5.43;;
8978;SDS011;4524;51.364;5.448;2023-02-01T02:46:57;13.63;;;4.33;;
8978;SDS011;4524;51.364;5.448;2023-02-01T02:49:49;14.10;;;5.13;;
8978;SDS011;4524;51.364;5.448;2023-02-01T02:52:35;16.90;;;5.27;;
8978;SDS011;4524;51.364;5.448;2023-02-01T02:55:24;19.80;;;5.20;;
8978;SDS011;4524;51.364;5.448;2023-02-01T02:57:55;15.93;;;5.00;;
8978;SDS011;4524;51.364;5.448;2023-02-01T03:00:43;17.47;;;5.20;;
8978;SDS011;4524;51.364;5.448;2023-02-01T03:03:31;16.50;;;5.40;;
8978;SDS011;4524;51.364;5.448;2023-02-01T03:06:16;14.47;;;4.70;;
8978;SDS011;4524;51.364;5.448;2023-02-01T03:08:49;17.03;;;5.20;;
8978;SDS011;4524;51.364;5.448;2023-02-01T03:11:20;18.13;;;4.43;;
8978;SDS011;4524;51.364;5.448;2023-02-01T03:13:49;16.80;;;5.17;;
8978;SDS011;4524;51.364;5.448;2023-02-01T03:16:20;16.60;;;4.73;;
8978;SDS011;4524;51.364;5.448;2023-02-01T03:18:54;18.57;;;4.70;;
8978;SDS011;4524;51.364;5.448;2023-02-01T03:21:26;18.33;;;5.27;;
8978;SDS011;4524;51.364;5.448;2023-02-01T03:24:01;20.00;;;4.80;;
8978;SDS011;4524;51.364;5.448;2023-02-01T03:26:34;20.47;;;4.97;;
8978;SDS011;4524;51.364;5.448;2023-02-01T03:29:08;15.33;;;4.03;;
8978;SDS011;4524;51.364;5.448;2023-02-01T03:31:41;18.23;;;4.83;;
8978;SDS011;4524;51.364;5.448;2023-02-01T03:34:10;21.03;;;5.30;;
8978;SDS011;4524;51.364;5.448;2023-02-01T03:36:41;14.23;;;3.93;;
8978;SDS011;4524;51.364;5.448;2023-02-01T03:39:19;17.30;;;4.43;;
8978;SDS011;4524;51.364;5.448;2023-02-01T03:41:53;14.83;;;4.67;;
8978;SDS011;4524;51.364;5.448;2023-02-01T03:44:24;17.13;;;3.83;;
8978;SDS011;4524;51.364;5.448;2023-02-01T03:46:57;15.90;;;4.93;;
8978;SDS011;4524;51.364;5.448;2023-02-01T03:49:30;15.50;;;4.30;;
8978;SDS011;4524;51.364;5.448;2023-02-01T03:52:03;13.60;;;4.23;;
8978;SDS011;4524;51.364;5.448;2023-02-01T03:54:35;15.90;;;4.43;;
8978;SDS011;4524;51.364;5.448;2023-02-01T03:57:06;15.93;;;3.77;;
8978;SDS011;4524;51.364;5.448;2023-02-01T03:59:39;16.33;;;4.73;;
8978;SDS011;4524;51.364;5.448;2023-02-01T04:02:07;14.07;;;4.23;;
8978;SDS011;4524;51.364;5.448;2023-02-01T04:04:36;13.27;;;4.80;;
8978;SDS011;4524;51.364;5.448;2023-02-01T04:07:05;19.23;;;4.57;;
8978;SDS011;4524;51.364;5.448;2023-02-01T04:09:33;12.10;;;4.17;;
8978;SDS011;4524;51.364;5.448;2023-02-01T04:12:02;20.70;;;4.70;;
8978;SDS011;4524;51.364;5.448;2023-02-01T04:14:30;14.47;;;4.37;;
8978;SDS011;4524;51.364;5.448;2023-02-01T04:16:58;21.57;;;4.43;;
8978;SDS011;4524;51.364;5.448;2023-02-01T04:19:26;16.53;;;4.17;;
8978;SDS011;4524;51.364;5.448;2023-02-01T04:21:54;17.30;;;4.50;;
8978;SDS011;4524;51.364;5.448;2023-02-01T04:24:22;16.17;;;4.40;;
8978;SDS011;4524;51.364;5.448;2023-02-01T04:26:50;15.77;;;4.60;;
8978;SDS011;4524;51.364;5.448;2023-02-01T04:29:19;16.33;;;4.30;;
8978;SDS011;4524;51.364;5.448;2023-02-01T04:31:47;19.23;;;4.90;;
8978;SDS011;4524;51.364;5.448;2023-02-01T04:34:16;16.10;;;4.23;;
8978;SDS011;4524;51.364;5.448;2023-02-01T04:36:44;13.87;;;4.57;;
8978;SDS011;4524;51.364;5.448;2023-02-01T04:39:12;14.67;;;4.27;;
8978;SDS011;4524;51.364;5.448;2023-02-01T04:41:40;15.50;;;4.53;;
8978;SDS011;4524;51.364;5.448;2023-02-01T04:44:09;18.37;;;4.73;;
8978;SDS011;4524;51.364;5.448;2023-02-01T04:46:42;22.37;;;5.13;;
8978;SDS011;4524;51.364;5.448;2023-02-01T04:49:11;19.33;;;4.27;;
8978;SDS011;4524;51.364;5.448;2023-02-01T04:51:40;18.40;;;4.90;;
8978;SDS011;4524;51.364;5.448;2023-02-01T04:54:08;18.50;;;4.30;;
8978;SDS011;4524;51.364;5.448;2023-02-01T04:56:38;19.43;;;4.63;;
8978;SDS011;4524;51.364;5.448;2023-02-01T04:59:07;20.23;;;4.40;;
8978;SDS011;4524;51.364;5.448;2023-02-01T05:01:35;17.63;;;4.73;;
8978;SDS011;4524;51.364;5.448;2023-02-01T05:04:04;16.93;;;4.23;;
8978;SDS011;4524;51.364;5.448;2023-02-01T05:06:32;12.67;;;4.23;;
8978;SDS011;4524;51.364;5.448;2023-02-01T05:09:01;17.33;;;4.30;;
8978;SDS011;4524;51.364;5.448;2023-02-01T05:11:29;20.57;;;4.93;;
8978;SDS011;4524;51.364;5.448;2023-02-01T05:14:14;17.20;;;4.43;;
8978;SDS011;4524;51.364;5.448;2023-02-01T05:16:42;22.20;;;4.33;;
8978;SDS011;4524;51.364;5.448;2023-02-01T05:19:12;19.07;;;4.60;;
8978;SDS011;4524;51.364;5.448;2023-02-01T05:21:40;16.93;;;4.37;;
8978;SDS011;4524;51.364;5.448;2023-02-01T05:24:08;15.90;;;4.27;;
8978;SDS011;4524;51.364;5.448;2023-02-01T05:26:42;13.00;;;4.30;;
8978;SDS011;4524;51.364;5.448;2023-02-01T05:29:10;18.60;;;4.97;;
8978;SDS011;4524;51.364;5.448;2023-02-01T05:31:39;19.57;;;4.67;;
8978;SDS011;4524;51.364;5.448;2023-02-01T05:34:07;13.67;;;4.67;;
8978;SDS011;4524;51.364;5.448;2023-02-01T05:36:37;14.87;;;4.77;;
8978;SDS011;4524;51.364;5.448;2023-02-01T05:39:05;18.03;;;4.70;;
8978;SDS011;4524;51.364;5.448;2023-02-01T05:41:33;25.63;;;5.07;;
8978;SDS011;4524;51.364;5.448;2023-02-01T05:44:01;17.83;;;4.43;;
8978;SDS011;4524;51.364;5.448;2023-02-01T05:46:30;19.87;;;4.57;;
8978;SDS011;4524;51.364;5.448;2023-02-01T05:48:58;23.97;;;5.10;;
8978;SDS011;4524;51.364;5.448;2023-02-01T05:51:26;15.30;;;3.90;;
8978;SDS011;4524;51.364;5.448;2023-02-01T05:53:56;18.83;;;4.97;;
8978;SDS011;4524;51.364;5.448;2023-02-01T05:56:24;18.33;;;4.47;;
8978;SDS011;4524;51.364;5.448;2023-02-01T05:58:52;24.80;;;4.27;;
8978;SDS011;4524;51.364;5.448;2023-02-01T06:01:20;17.90;;;4.37;;
8978;SDS011;4524;51.364;5.448;2023-02-01T06:03:48;18.87;;;4.57;;
8978;SDS011;4524;51.364;5.448;2023-02-01T06:06:16;15.30;;;4.57;;
8978;SDS011;4524;51.364;5.448;2023-02-01T06:08:45;21.80;;;5.07;;
8978;SDS011;4524;51.364;5.448;2023-02-01T06:11:15;18.50;;;4.87;;
8978;SDS011;4524;51.364;5.448;2023-02-01T06:13:57;19.30;;;4.40;;
8978;SDS011;4524;51.364;5.448;2023-02-01T06:16:26;18.23;;;4.40;;
8978;SDS011;4524;51.364;5.448;2023-02-01T06:18:55;24.03;;;4.67;;
8978;SDS011;4524;51.364;5.448;2023-02-01T06:21:22;24.13;;;4.97;;
8978;SDS011;4524;51.364;5.448;2023-02-01T06:23:51;12.97;;;4.33;;
8978;SDS011;4524;51.364;5.448;2023-02-01T06:26:20;16.27;;;4.50;;
8978;SDS011;4524;51.364;5.448;2023-02-01T06:28:49;19.40;;;4.83;;
8978;SDS011;4524;51.364;5.448;2023-02-01T06:31:17;19.43;;;4.90;;
8978;SDS011;4524;51.364;5.448;2023-02-01T06:33:45;19.77;;;4.80;;
8978;SDS011;4524;51.364;5.448;2023-02-01T06:36:15;22.57;;;4.97;;
8978;SDS011;4524;51.364;5.448;2023-02-01T06:38:44;18.53;;;3.90;;
8978;SDS011;4524;51.364;5.448;2023-02-01T06:41:12;20.20;;;5.00;;
8978;SDS011;4524;51.364;5.448;2023-02-01T06:43:42;18.60;;;4.60;;
8978;SDS011;4524;51.364;5.448;2023-02-01T06:46:12;20.13;;;4.30;;
8978;SDS011;4524;51.364;5.448;2023-02-01T06:48:41;17.90;;;4.97;;
8978;SDS011;4524;51.364;5.448;2023-02-01T06:51:17;18.23;;;4.20;;
8978;SDS011;4524;51.364;5.448;2023-02-01T06:53:47;25.63;;;5.03;;
8978;SDS011;4524;51.364;5.448;2023-02-01T06:56:15;21.07;;;4.90;;
8978;SDS011;4524;51.364;5.448;2023-02-01T06:58:45;16.53;;;4.30;;
8978;SDS011;4524;51.364;5.448;2023-02-01T07:01:14;21.47;;;5.30;;
8978;SDS011;4524;51.364;5.448;2023-02-01T07:03:46;21.80;;;4.97;;
8978;SDS011;4524;51.364;5.448;2023-02-01T07:06:16;18.00;;;4.17;;
8978;SDS011;4524;51.364;5.448;2023-02-01T07:08:45;12.47;;;4.10;;
8978;SDS011;4524;51.364;5.448;2023-02-01T07:11:13;15.53;;;4.60;;
8978;SDS011;4524;51.364;5.448;2023-02-01T07:13:45;20.33;;;5.00;;
8978;SDS011;4524;51.364;5.448;2023-02-01T07:16:14;19.23;;;4.87;;
8978;SDS011;4524;51.364;5.448;2023-02-01T07:18:43;16.73;;;4.23;;
8978;SDS011;4524;51.364;5.448;2023-02-01T07:21:12;20.87;;;4.80;;
8978;SDS011;4524;51.364;5.448;2023-02-01T07:23:40;18.17;;;4.50;;
8978;SDS011;4524;51.364;5.448;2023-02-01T07:26:09;20.23;;;5.03;;
8978;SDS011;4524;51.364;5.448;2023-02-01T07:28:39;18.10;;;4.67;;
8978;SDS011;4524;51.364;5.448;2023-02-01T07:31:10;21.87;;;5.20;;
8978;SDS011;4524;51.364;5.448;2023-02-01T07:33:39;18.10;;;4.53;;
8978;SDS011;4524;51.364;5.448;2023-02-01T07:36:10;24.80;;;5.03;;
8978;SDS011;4524;51.364;5.448;2023-02-01T07:38:39;21.47;;;4.53;;
8978;SDS011;4524;51.364;5.448;2023-02-01T07:41:08;20.77;;;5.47;;
8978;SDS011;4524;51.364;5.448;2023-02-01T07:43:36;19.27;;;4.60;;
8978;SDS011;4524;51.364;5.448;2023-02-01T07:46:04;17.00;;;4.57;;
8978;SDS011;4524;51.364;5.448;2023-02-01T07:48:34;18.60;;;4.53;;
8978;SDS011;4524;51.364;5.448;2023-02-01T07:51:03;18.70;;;5.13;;
8978;SDS011;4524;51.364;5.448;2023-02-01T07:53:33;16.93;;;4.80;;
8978;SDS011;4524;51.364;5.448;2023-02-01T07:56:02;17.10;;;5.03;;
8978;SDS011;4524;51.364;5.448;2023-02-01T07:58:30;17.03;;;4.37;;
8978;SDS011;4524;51.364;5.448;2023-02-01T08:00:58;18.70;;;4.87;;
8978;SDS011;4524;51.364;5.448;2023-02-01T08:03:55;18.67;;;5.30;;
8978;SDS011;4524;51.364;5.448;2023-02-01T08:06:25;23.83;;;4.90;;
8978;SDS011;4524;51.364;5.448;2023-02-01T08:08:54;25.10;;;7.00;;
8978;SDS011;4524;51.364;5.448;2023-02-01T08:11:23;16.33;;;4.60;;
8978;SDS011;4524;51.364;5.448;2023-02-01T08:13:52;15.93;;;4.23;;
8978;SDS011;4524;51.364;5.448;2023-02-01T08:16:23;19.43;;;5.47;;
8978;SDS011;4524;51.364;5.448;2023-02-01T08:18:53;19.57;;;4.97;;
8978;SDS011;4524;51.364;5.448;2023-02-01T08:21:22;17.33;;;4.80;;
8978;SDS011;4524;51.364;5.448;2023-02-01T08:23:52;19.37;;;5.40;;
8978;SDS011;4524;51.364;5.448;2023-02-01T08:26:23;18.23;;;4.10;;
8978;SDS011;4524;51.364;5.448;2023-02-01T08:28:53;18.00;;;4.27;;
8978;SDS011;4524;51.364;5.448;2023-02-01T08:31:23;19.70;;;4.33;;
8978;SDS011;4524;51.364;5.448;2023-02-01T08:33:54;17.50;;;4.40;;
8978;SDS011;4524;51.364;5.448;2023-02-01T08:36:24;20.80;;;5.03;;
8978;SDS011;4524;51.364;5.448;2023-02-01T08:38:53;12.90;;;4.00;;
8978;SDS011;4524;51.364;5.448;2023-02-01T08:41:22;18.57;;;4.43;;
8978;SDS011;4524;51.364;5.448;2023-02-01T08:43:52;23.17;;;5.23;;
8978;SDS011;4524;51.364;5.448;2023-02-01T08:46:21;16.00;;;5.00;;
8978;SDS011;4524;51.364;5.448;2023-02-01T08:48:50;15.00;;;4.07;;
8978;SDS011;4524;51.364;5.448;2023-02-01T08:51:20;18.40;;;4.37;;
8978;SDS011;4524;51.364;5.448;2023-02-01T08:53:50;16.97;;;4.83;;
8978;SDS011;4524;51.364;5.448;2023-02-01T08:56:18;14.90;;;5.10;;
8978;SDS011;4524;51.364;5.448;2023-02-01T08:58:47;19.00;;;5.00;;
8978;SDS011;4524;51.364;5.448;2023-02-01T09:01:15;15.57;;;4.83;;
8978;SDS011;4524;51.364;5.448;2023-02-01T09:03:44;20.77;;;4.90;;
8978;SDS011;4524;51.364;5.448;2023-02-01T09:06:13;18.93;;;5.07;;
8978;SDS011;4524;51.364;5.448;2023-02-01T09:08:43;17.57;;;4.73;;
8978;SDS011;4524;51.364;5.448;2023-02-01T09:11:12;19.53;;;4.73;;
8978;SDS011;4524;51.364;5.448;2023-02-01T09:13:41;17.77;;;4.77;;
8978;SDS011;4524;51.364;5.448;2023-02-01T09:16:09;17.30;;;4.50;;
8978;SDS011;4524;51.364;5.448;2023-02-01T09:18:38;15.67;;;4.70;;
8978;SDS011;4524;51.364;5.448;2023-02-01T09:21:26;19.17;;;4.70;;
8978;SDS011;4524;51.364;5.448;2023-02-01T09:23:55;15.77;;;4.40;;
8978;SDS011;4524;51.364;5.448;2023-02-01T09:26:23;18.50;;;4.80;;
8978;SDS011;4524;51.364;5.448;2023-02-01T09:28:58;15.00;;;4.43;;
8978;SDS011;4524;51.364;5.448;2023-02-01T09:31:26;18.20;;;4.73;;
8978;SDS011;4524;51.364;5.448;2023-02-01T09:33:54;16.40;;;4.63;;
8978;SDS011;4524;51.364;5.448;2023-02-01T09:36:23;21.10;;;4.73;;
8978;SDS011;4524;51.364;5.448;2023-02-01T09:38:51;15.97;;;4.50;;
8978;SDS011;4524;51.364;5.448;2023-02-01T09:41:24;17.43;;;5.00;;
8978;SDS011;4524;51.364;5.448;2023-02-01T09:44:01;16.80;;;4.67;;
8978;SDS011;4524;51.364;5.448;2023-02-01T09:46:35;18.47;;;4.17;;
8978;SDS011;4524;51.364;5.448;2023-02-01T09:49:05;17.80;;;5.07;;
8978;SDS011;4524;51.364;5.448;2023-02-01T09:51:41;14.10;;;4.77;;
8978;SDS011;4524;51.364;5.448;2023-02-01T09:54:13;16.00;;;4.10;;
8978;SDS011;4524;51.364;5.448;2023-02-01T09:56:46;17.67;;;5.33;;
8978;SDS011;4524;51.364;5.448;2023-02-01T09:59:23;16.70;;;5.00;;
8978;SDS011;4524;51.364;5.448;2023-02-01T10:01:58;18.03;;;4.87;;
8978;SDS011;4524;51.364;5.448;2023-02-01T10:04:26;16.83;;;5.57;;
8978;SDS011;4524;51.364;5.448;2023-02-01T10:06:57;17.23;;;5.20;;
8978;SDS011;4524;51.364;5.448;2023-02-01T10:09:52;23.57;;;5.27;;
8978;SDS011;4524;51.364;5.448;2023-02-01T10:12:32;13.23;;;3.63;;
8978;SDS011;4524;51.364;5.448;2023-02-01T10:15:22;16.67;;;4.23;;
8978;SDS011;4524;51.364;5.448;2023-02-01T10:18:04;17.23;;;4.90;;
8978;SDS011;4524;51.364;5.448;2023-02-01T10:20:45;18.00;;;4.23;;
8978;SDS011;4524;51.364;5.448;2023-02-01T10:23:25;14.87;;;3.73;;
8978;SDS011;4524;51.364;5.448;2023-02-01T10:26:17;15.43;;;4.03;;
8978;SDS011;4524;51.364;5.448;2023-02-01T10:28:50;19.77;;;4.60;;
8978;SDS011;4524;51.364;5.448;2023-02-01T10:31:20;16.87;;;4.53;;
8978;SDS011;4524;51.364;5.448;2023-02-01T10:33:53;14.70;;;3.70;;
8978;SDS011;4524;51.364;5.448;2023-02-01T10:36:25;16.57;;;3.93;;
8978;SDS011;4524;51.364;5.448;2023-02-01T10:38:58;13.97;;;3.90;;
8978;SDS011;4524;51.364;5.448;2023-02-01T10:41:29;14.97;;;4.07;;
8978;SDS011;4524;51.364;5.448;2023-02-01T10:44:02;15.17;;;4.00;;
8978;SDS011;4524;51.364;5.448;2023-02-01T10:46:33;15.63;;;3.60;;
8978;SDS011;4524;51.364;5.448;2023-02-01T10:49:02;15.57;;;4.10;;
8978;SDS011;4524;51.364;5.448;2023-02-01T10:51:36;13.27;;;3.57;;
8978;SDS011;4524;51.364;5.448;2023-02-01T10:54:14;12.90;;;3.33;;
8978;SDS011;4524;51.364;5.448;2023-02-01T10:56:47;11.30;;;3.20;;
8978;SDS011;4524;51.364;5.448;2023-02-01T10:59:18;13.93;;;3.30;;
8978;SDS011;4524;51.364;5.448;2023-02-01T11:01:48;13.33;;;3.00;;
8978;SDS011;4524;51.364;5.448;2023-02-01T11:04:17;12.23;;;3.77;;
8978;SDS011;4524;51.364;5.448;2023-02-01T11:06:47;11.77;;;3.40;;
8978;SDS011;4524;51.364;5.448;2023-02-01T11:09:19;12.70;;;3.07;;
8978;SDS011;4524;51.364;5.448;2023-02-01T11:11:55;12.43;;;2.73;;
8978;SDS011;4524;51.364;5.448;2023-02-01T11:14:34;14.17;;;3.20;;
8978;SDS011;4524;51.364;5.448;2023-02-01T11:19:58;11.27;;;2.90;;
8978;SDS011;4524;51.364;5.448;2023-02-01T11:22:27;9.23;;;2.80;;
8978;SDS011;4524;51.364;5.448;2023-02-01T11:24:56;11.90;;;3.20;;
8978;SDS011;4524;51.364;5.448;2023-02-01T11:27:25;12.70;;;3.07;;
8978;SDS011;4524;51.364;5.448;2023-02-01T11:29:57;12.23;;;2.90;;
8978;SDS011;4524;51.364;5.448;2023-02-01T11:32:28;10.13;;;2.60;;
8978;SDS011;4524;51.364;5.448;2023-02-01T11:34:58;10.40;;;3.13;;
8978;SDS011;4524;51.364;5.448;2023-02-01T11:37:30;13.37;;;2.77;;
8978;SDS011;4524;51.364;5.448;2023-02-01T11:40:04;11.67;;;2.80;;
8978;SDS011;4524;51.364;5.448;2023-02-01T11:42:55;13.87;;;2.97;;
8978;SDS011;4524;51.364;5.448;2023-02-01T11:45:26;9.17;;;2.73;;
8978;SDS011;4524;51.364;5.448;2023-02-01T11:47:56;13.60;;;2.93;;
8978;SDS011;4524;51.364;5.448;2023-02-01T11:50:28;10.63;;;2.77;;
8978;SDS011;4524;51.364;5.448;2023-02-01T11:56:02;11.10;;;2.97;;
8978;SDS011;4524;51.364;5.448;2023-02-01T11:58:50;11.33;;;2.90;;
8978;SDS011;4524;51.364;5.448;2023-02-01T12:01:40;11.07;;;3.40;;
8978;SDS011;4524;51.364;5.448;2023-02-01T12:07:40;11.20;;;2.83;;
8978;SDS011;4524;51.364;5.448;2023-02-01T12:10:22;8.83;;;2.83;;
8978;SDS011;4524;51.364;5.448;2023-02-01T12:13:01;10.90;;;3.33;;
8978;SDS011;4524;51.364;5.448;2023-02-01T12:15:46;10.33;;;3.13;;
8978;SDS011;4524;51.364;5.448;2023-02-01T12:18:32;11.30;;;2.53;;
8978;SDS011;4524;51.364;5.448;2023-02-01T12:21:23;10.43;;;2.70;;
8978;SDS011;4524;51.364;5.448;2023-02-01T12:24:16;7.77;;;2.37;;
8978;SDS011;4524;51.364;5.448;2023-02-01T12:27:17;12.83;;;2.87;;
8978;SDS011;4524;51.364;5.448;2023-02-01T12:30:14;11.40;;;2.80;;
8978;SDS011;4524;51.364;5.448;2023-02-01T12:32:54;11.87;;;2.77;;
8978;SDS011;4524;51.364;5.448;2023-02-01T12:35:41;10.97;;;2.93;;
8978;SDS011;4524;51.364;5.448;2023-02-01T12:38:32;12.90;;;3.13;;
8978;SDS011;4524;51.364;5.448;2023-02-01T12:41:19;10.60;;;3.03;;
8978;SDS011;4524;51.364;5.448;2023-02-01T12:43:56;13.17;;;3.77;;
8978;SDS011;4524;51.364;5.448;2023-02-01T12:46:28;14.73;;;2.80;;
8978;SDS011;4524;51.364;5.448;2023-02-01T12:49:00;13.60;;;3.00;;
8978;SDS011;4524;51.364;5.448;2023-02-01T12:51:35;10.20;;;3.03;;
8978;SDS011;4524;51.364;5.448;2023-02-01T12:54:09;12.33;;;2.83;;
8978;SDS011;4524;51.364;5.448;2023-02-01T12:56:43;10.73;;;2.77;;
8978;SDS011;4524;51.364;5.448;2023-02-01T12:59:17;10.30;;;2.23;;
8978;SDS011;4524;51.364;5.448;2023-02-01T13:01:51;10.97;;;2.60;;
8978;SDS011;4524;51.364;5.448;2023-02-01T13:04:26;12.47;;;3.10;;
8978;SDS011;4524;51.364;5.448;2023-02-01T13:07:02;9.97;;;2.97;;
8978;SDS011;4524;51.364;5.448;2023-02-01T13:09:37;10.27;;;2.60;;
8978;SDS011;4524;51.364;5.448;2023-02-01T13:12:12;8.73;;;2.50;;
8978;SDS011;4524;51.364;5.448;2023-02-01T13:14:46;12.20;;;2.70;;
8978;SDS011;4524;51.364;5.448;2023-02-01T13:17:18;12.27;;;2.63;;
8978;SDS011;4524;51.364;5.448;2023-02-01T13:19:52;13.97;;;2.90;;
8978;SDS011;4524;51.364;5.448;2023-02-01T13:22:27;11.37;;;3.10;;
8978;SDS011;4524;51.364;5.448;2023-02-01T13:24:58;12.00;;;3.03;;
8978;SDS011;4524;51.364;5.448;2023-02-01T13:27:28;11.97;;;3.37;;
8978;SDS011;4524;51.364;5.448;2023-02-01T13:29:57;10.63;;;3.20;;
8978;SDS011;4524;51.364;5.448;2023-02-01T13:32:35;14.57;;;3.37;;
8978;SDS011;4524;51.364;5.448;2023-02-01T13:35:41;10.33;;;3.27;;
8978;SDS011;4524;51.364;5.448;2023-02-01T13:38:38;15.30;;;3.30;;
8978;SDS011;4524;51.364;5.448;2023-02-01T13:41:27;17.43;;;3.50;;
8978;SDS011;4524;51.364;5.448;2023-02-01T13:43:58;12.90;;;2.90;;
8978;SDS011;4524;51.364;5.448;2023-02-01T13:46:29;18.13;;;3.30;;
8978;SDS011;4524;51.364;5.448;2023-02-01T13:48:58;10.37;;;2.90;;
8978;SDS011;4524;51.364;5.448;2023-02-01T13:51:32;16.13;;;4.57;;
8978;SDS011;4524;51.364;5.448;2023-02-01T13:54:04;14.60;;;3.13;;
8978;SDS011;4524;51.364;5.448;2023-02-01T13:56:39;11.00;;;3.17;;
8978;SDS011;4524;51.364;5.448;2023-02-01T14:05:59;14.87;;;3.77;;
8978;SDS011;4524;51.364;5.448;2023-02-01T14:08:46;13.37;;;3.50;;
8978;SDS011;4524;51.364;5.448;2023-02-01T14:11:36;13.00;;;3.60;;
8978;SDS011;4524;51.364;5.448;2023-02-01T14:14:06;13.23;;;3.27;;
8978;SDS011;4524;51.364;5.448;2023-02-01T14:23:21;16.87;;;3.00;;
8978;SDS011;4524;51.364;5.448;2023-02-01T14:28:49;15.13;;;3.43;;
8978;SDS011;4524;51.364;5.448;2023-02-01T14:31:31;13.83;;;3.83;;
8978;SDS011;4524;51.364;5.448;2023-02-01T14:34:03;15.13;;;3.83;;
8978;SDS011;4524;51.364;5.448;2023-02-01T14:36:43;14.17;;;3.50;;
8978;SDS011;4524;51.364;5.448;2023-02-01T14:39:25;13.70;;;3.30;;
8978;SDS011;4524;51.364;5.448;2023-02-01T14:41:57;14.60;;;3.60;;
8978;SDS011;4524;51.364;5.448;2023-02-01T14:44:33;15.63;;;3.43;;
8978;SDS011;4524;51.364;5.448;2023-02-01T14:50:11;14.03;;;3.93;;
8978;SDS011;4524;51.364;5.448;2023-02-01T14:52:51;13.13;;;3.33;;
8978;SDS011;4524;51.364;5.448;2023-02-01T14:55:33;16.80;;;3.73;;
8978;SDS011;4524;51.364;5.448;2023-02-01T14:58:05;15.50;;;3.53;;
8978;SDS011;4524;51.364;5.448;2023-02-01T15:00:47;16.83;;;4.47;;
8978;SDS011;4524;51.364;5.448;2023-02-01T15:03:24;13.00;;;3.30;;
8978;SDS011;4524;51.364;5.448;2023-02-01T15:06:12;12.90;;;3.50;;
8978;SDS011;4524;51.364;5.448;2023-02-01T15:08:54;14.67;;;3.57;;
8978;SDS011;4524;51.364;5.448;2023-02-01T15:11:24;13.70;;;3.70;;
8978;SDS011;4524;51.364;5.448;2023-02-01T15:13:52;11.10;;;3.40;;
8978;SDS011;4524;51.364;5.448;2023-02-01T15:16:24;13.20;;;3.70;;
8978;SDS011;4524;51.364;5.448;2023-02-01T15:19:11;14.23;;;3.40;;
8978;SDS011;4524;51.364;5.448;2023-02-01T15:21:45;11.63;;;3.70;;
8978;SDS011;4524;51.364;5.448;2023-02-01T15:24:18;14.40;;;3.80;;
8978;SDS011;4524;51.364;5.448;2023-02-01T15:26:48;21.20;;;4.30;;
8978;SDS011;4524;51.364;5.448;2023-02-01T15:29:17;14.43;;;3.33;;
8978;SDS011;4524;51.364;5.448;2023-02-01T15:31:48;14.17;;;3.73;;
8978;SDS011;4524;51.364;5.448;2023-02-01T15:34:18;13.37;;;3.70;;
8978;SDS011;4524;51.364;5.448;2023-02-01T15:36:47;17.90;;;3.60;;
8978;SDS011;4524;51.364;5.448;2023-02-01T15:39:28;12.30;;;3.60;;
8978;SDS011;4524;51.364;5.448;2023-02-01T15:41:59;15.30;;;3.37;;
8978;SDS011;4524;51.364;5.448;2023-02-01T15:44:37;14.47;;;3.40;;
8978;SDS011;4524;51.364;5.448;2023-02-01T15:47:12;15.10;;;3.23;;
8978;SDS011;4524;51.364;5.448;2023-02-01T15:49:44;15.30;;;3.70;;
8978;SDS011;4524;51.364;5.448;2023-02-01T15:52:18;21.13;;;4.40;;
8978;SDS011;4524;51.364;5.448;2023-02-01T15:54:52;10.80;;;3.13;;
8978;SDS011;4524;51.364;5.448;2023-02-01T15:57:24;13.07;;;3.20;;
8978;SDS011;4524;51.364;5.448;2023-02-01T15:59:57;13.57;;;3.53;;
8978;SDS011;4524;51.364;5.448;2023-02-01T16:02:41;16.67;;;3.57;;
8978;SDS011;4524;51.364;5.448;2023-02-01T16:05:25;25.13;;;4.50;;
8978;SDS011;4524;51.364;5.448;2023-02-01T16:07:59;15.73;;;3.70;;
8978;SDS011;4524;51.364;5.448;2023-02-01T16:10:30;14.67;;;3.67;;